Watertown, New York
Current Conditions -  °F | °C
As of 1:56 AM on Monday 22 Dec 2014 (Local Time) from KART Reporting Station
Haze Haze  
Wind Chill: 20°   Ceiling: Unl
Heat Index: 20°   Visibility: 5mi
Dew Point: 15°   Wind: 3mph
Humidity: 81%   Direction: 70°ENE
Pressure: 30.33"   Gusts: NA
Location:  43.98°N, 75.91°W
Report Text: KART 220656Z AUTO 07003KT 5SM HZ FEW032 M07/M09 A3033 RMK AO2 SLP278 T10671094
Loading
Personal Weather Stations






























Interactive Weather Map New forecast layout! Learn more

10-Day Weather Forecast

Advertisements
Track Severe Weather on mobile